createdAt,value
2022-09-01T00:00:59.017Z,100091.14
2022-09-01T00:02:07.589Z,100096.12
2022-09-01T00:03:16.576Z,100090.93
2022-09-01T00:04:26.366Z,100093.44
2022-09-01T00:05:35.064Z,100086.72
2022-09-01T00:06:42.388Z,100093.08
2022-09-01T00:07:47.053Z,100082.70
2022-09-01T00:08:53.960Z,100094.37
2022-09-01T00:09:58.593Z,100092.92
2022-09-01T00:11:01.871Z,100096.45
2022-09-01T00:12:09.742Z,100100.97
2022-09-01T00:13:14.897Z,100099.58
2022-09-01T00:14:30.201Z,100097.81
2022-09-01T00:15:29.934Z,100103.73
2022-09-01T00:16:35.131Z,100104.42
2022-09-01T00:17:39.263Z,100105.50
2022-09-01T00:18:45.482Z,100106.83
2022-09-01T00:19:52.220Z,100104.45
2022-09-01T00:20:59.528Z,100095.69
2022-09-01T00:22:05.412Z,100100.62
2022-09-01T00:23:09.048Z,100098.78
2022-09-01T00:24:14.315Z,100097.83
2022-09-01T00:25:20.700Z,100091.23
2022-09-01T00:26:24.990Z,100098.23
2022-09-01T00:27:30.906Z,100096.39
2022-09-01T00:28:36.268Z,100102.97
2022-09-01T00:29:44.051Z,100095.84
2022-09-01T00:30:48.330Z,100098.23
2022-09-01T00:31:52.967Z,100095.25
2022-09-01T00:32:56.741Z,100105.52
2022-09-01T00:34:01.346Z,100101.98
2022-09-01T00:35:07.344Z,100102.31
2022-09-01T00:36:15.231Z,100105.14
2022-09-01T00:37:18.043Z,100099.92
2022-09-01T00:38:22.658Z,100101.31
2022-09-01T00:39:27.418Z,100107.90
2022-09-01T00:40:33.057Z,100103.66
2022-09-01T00:41:44.584Z,100112.86
2022-09-01T00:42:49.943Z,100111.72
2022-09-01T00:43:56.962Z,100113.41
2022-09-01T00:44:59.734Z,100113.78
2022-09-01T00:46:06.527Z,100104.97
2022-09-01T00:47:12.397Z,100104.97
2022-09-01T00:48:20.406Z,100113.09
2022-09-01T00:49:37.487Z,100112.41
2022-09-01T00:50:43.396Z,100109.02
2022-09-01T00:51:55.860Z,100117.72
2022-09-01T00:53:00.387Z,100108.81
2022-09-01T00:54:07.346Z,100110.11
2022-09-01T00:55:16.820Z,100110.66
2022-09-01T00:56:24.669Z,100115.39
2022-09-01T00:57:29.044Z,100109.17
2022-09-01T00:58:33.292Z,100113.04
2022-09-01T00:59:39.612Z,100108.03
2022-09-01T01:00:44.789Z,100114.19
2022-09-01T01:01:49.419Z,100117.23
2022-09-01T01:02:58.639Z,100105.34
2022-09-01T01:04:05.265Z,100110.11
2022-09-01T01:05:12.616Z,100105.34
2022-09-01T01:06:20.165Z,100108.27
2022-09-01T01:07:24.203Z,100111.80
2022-09-01T01:09:55.074Z,100116.39
2022-09-01T01:10:58.154Z,100113.70
2022-09-01T01:12:05.276Z,100111.02
2022-09-01T01:13:15.715Z,100115.19
2022-09-01T01:14:22.658Z,100116.03
2022-09-01T01:15:27.105Z,100116.72
2022-09-01T01:16:33.156Z,100112.65
2022-09-01T01:17:37.037Z,100116.54
2022-09-01T01:18:43.572Z,100113.04
2022-09-01T01:20:10.881Z,100118.33
2022-09-01T01:21:37.131Z,100117.17
2022-09-01T01:23:17.822Z,100114.03
2022-09-01T01:24:31.573Z,100113.64
2022-09-01T01:25:53.798Z,100111.66
2022-09-01T01:27:01.286Z,100113.19
2022-09-01T01:28:19.597Z,100111.16
2022-09-01T01:29:29.375Z,100106.63
2022-09-01T01:30:38.602Z,100109.96
2022-09-01T01:31:42.826Z,100109.42
2022-09-01T01:32:50.878Z,100119.47
2022-09-01T01:33:59.948Z,100118.72
2022-09-01T01:35:04.441Z,100113.19
2022-09-01T01:36:16.205Z,100108.36
2022-09-01T01:37:26.713Z,100113.94
2022-09-01T01:38:30.815Z,100113.64
2022-09-01T01:39:35.384Z,100104.29
2022-09-01T01:40:40.124Z,100107.03
2022-09-01T01:41:49.240Z,100102.89
2022-09-01T01:42:54.348Z,100101.05
2022-09-01T01:43:59.121Z,100102.10
2022-09-01T01:45:04.888Z,100102.80
2022-09-01T01:46:10.126Z,100101.49
2022-09-01T01:47:16.470Z,100108.17
2022-09-01T01:48:23.160Z,100105.48
2022-09-01T01:49:29.637Z,100101.88
2022-09-01T01:50:37.141Z,100100.55
2022-09-01T01:51:41.307Z,100097.35
2022-09-01T01:52:45.615Z,100107.95
2022-09-01T01:53:51.382Z,100098.52
2022-09-01T01:54:59.320Z,100096.22
2022-09-01T01:56:05.929Z,100097.42
2022-09-01T01:57:12.585Z,100093.38
2022-09-01T01:58:19.191Z,100098.36
2022-09-01T01:59:25.814Z,100101.44
2022-09-01T02:00:35.512Z,100092.05
2022-09-01T02:01:39.864Z,100101.11
2022-09-01T02:02:45.365Z,100094.14
2022-09-01T02:03:49.001Z,100101.30
2022-09-01T02:04:52.936Z,100104.83
2022-09-01T02:05:58.301Z,100106.19
2022-09-01T02:07:02.513Z,100103.20
2022-09-01T02:08:10.882Z,100101.36
2022-09-01T02:09:25.123Z,100098.81
2022-09-01T02:10:34.651Z,100102.14
2022-09-01T02:11:40.977Z,100104.05
2022-09-01T02:12:47.753Z,100097.28
2022-09-01T02:13:52.473Z,100107.27
2022-09-01T02:15:00.158Z,100100.84
2022-09-01T02:16:09.461Z,100103.59
2022-09-01T02:17:12.447Z,100098.92
2022-09-01T02:18:37.953Z,100104.15
2022-09-01T02:19:42.798Z,100106.02
2022-09-01T02:20:48.768Z,100098.12
2022-09-01T02:21:53.882Z,100102.50
2022-09-01T02:22:57.804Z,100098.67
2022-09-01T02:24:04.240Z,100096.42
2022-09-01T02:25:08.886Z,100094.44
2022-09-01T02:26:17.540Z,100091.47
2022-09-01T02:27:20.001Z,100094.99
2022-09-01T02:28:29.222Z,100096.83
2022-09-01T02:29:33.310Z,100095.29
2022-09-01T02:30:39.761Z,100097.67
2022-09-01T02:31:47.907Z,100096.28
2022-09-01T02:32:51.593Z,100094.44
2022-09-01T02:33:56.468Z,100098.12
2022-09-01T02:35:00.824Z,100090.91
2022-09-01T02:36:09.247Z,100092.08
2022-09-01T02:37:13.130Z,100097.20
2022-09-01T02:38:21.899Z,100089.29
2022-09-01T02:39:29.275Z,100100.72
2022-09-01T02:40:34.973Z,100098.73
2022-09-01T02:41:38.745Z,100092.81
2022-09-01T02:42:47.093Z,100097.20
2022-09-01T02:43:52.654Z,100104.84
2022-09-01T02:45:02.813Z,100100.79
2022-09-01T02:46:07.666Z,100096.00
2022-09-01T02:47:13.613Z,100099.27
2022-09-01T02:48:20.354Z,100101.11
2022-09-01T02:49:26.942Z,100101.02
2022-09-01T02:50:33.944Z,100100.08
2022-09-01T02:51:37.241Z,100098.06
2022-09-01T02:52:43.977Z,100104.18
2022-09-01T02:53:54.074Z,100103.19
2022-09-01T02:55:00.487Z,100101.23
2022-09-01T02:56:09.855Z,100099.30
2022-09-01T02:57:13.627Z,100100.15
2022-09-01T02:58:18.369Z,100100.84
2022-09-01T02:59:28.546Z,100102.82
2022-09-01T03:00:37.440Z,100101.27
2022-09-01T03:01:45.293Z,100107.48
2022-09-01T03:02:55.431Z,100101.69
2022-09-01T03:04:05.480Z,100106.06
2022-09-01T03:05:12.195Z,100103.06
2022-09-01T03:06:19.947Z,100104.09
2022-09-01T03:07:28.638Z,100106.63
2022-09-01T03:08:37.010Z,100109.88
2022-09-01T03:09:42.203Z,100109.74
2022-09-01T03:10:46.748Z,100111.86
2022-09-01T03:11:53.227Z,100111.30
2022-09-01T03:13:07.242Z,100111.29
2022-09-01T03:14:13.654Z,100112.70
2022-09-01T03:15:17.962Z,100107.20
2022-09-01T03:16:22.354Z,100105.80
2022-09-01T03:17:25.485Z,100115.81
2022-09-01T03:18:29.130Z,100123.88
2022-09-01T03:19:36.089Z,100116.13
2022-09-01T03:20:48.589Z,100117.56
2022-09-01T03:21:52.489Z,100119.22
2022-09-01T03:22:59.778Z,100121.22
2022-09-01T03:24:05.948Z,100122.07
2022-09-01T03:25:10.213Z,100121.06
2022-09-01T03:26:15.875Z,100123.15
2022-09-01T03:27:22.774Z,100125.01
2022-09-01T03:28:26.961Z,100125.30
2022-09-01T03:29:30.013Z,100129.24
2022-09-01T03:30:40.689Z,100125.03
2022-09-01T03:31:46.745Z,100119.39
2022-09-01T03:32:55.007Z,100124.87
2022-09-01T03:34:01.731Z,100117.25
2022-09-01T03:35:09.100Z,100128.09
2022-09-01T03:36:16.094Z,100124.42
2022-09-01T03:37:20.361Z,100124.28
2022-09-01T03:38:26.948Z,100121.48
2022-09-01T03:39:41.941Z,100121.77
2022-09-01T03:40:46.911Z,100125.42
2022-09-01T03:41:51.180Z,100121.36
2022-09-01T03:42:57.206Z,100124.45
2022-09-01T03:44:00.274Z,100123.73
2022-09-01T03:45:09.819Z,100124.70
2022-09-01T03:46:16.971Z,100126.95
2022-09-01T03:47:23.711Z,100134.86
2022-09-01T03:48:32.716Z,100123.01
2022-09-01T03:49:38.763Z,100133.73
2022-09-01T03:50:47.805Z,100124.84
2022-09-01T03:51:53.936Z,100122.86
2022-09-01T03:53:02.094Z,100127.09
2022-09-01T03:54:07.903Z,100125.12
2022-09-01T03:55:12.683Z,100120.00
2022-09-01T03:56:17.438Z,100123.66
2022-09-01T03:57:20.391Z,100126.39
2022-09-01T03:58:28.325Z,100124.13
2022-09-01T03:59:33.253Z,100124.09
2022-09-01T04:00:41.707Z,100129.17
2022-09-01T04:01:47.302Z,100130.11
2022-09-01T04:02:57.220Z,100131.73
2022-09-01T04:04:01.089Z,100128.11
2022-09-01T04:05:09.136Z,100141.06
2022-09-01T04:06:14.474Z,100139.73
2022-09-01T04:07:19.228Z,100138.24
2022-09-01T04:08:33.043Z,100135.27
2022-09-01T04:09:36.693Z,100138.36
2022-09-01T04:10:54.472Z,100138.94
2022-09-01T04:11:59.779Z,100134.53
2022-09-01T04:13:04.085Z,100137.17
2022-09-01T04:14:11.614Z,100139.09
2022-09-01T04:15:18.095Z,100144.64
2022-09-01T04:16:46.989Z,100149.64
2022-09-01T04:18:10.363Z,100149.61
2022-09-01T04:19:18.860Z,100151.44
2022-09-01T04:20:23.820Z,100144.31
2022-09-01T04:21:31.499Z,100149.09
2022-09-01T04:22:40.535Z,100154.97
2022-09-01T04:23:48.092Z,100151.38
2022-09-01T04:24:56.356Z,100152.22
2022-09-01T04:26:05.981Z,100160.83
2022-09-01T04:27:10.229Z,100158.22
2022-09-01T04:28:16.293Z,100159.77
2022-09-01T04:29:28.263Z,100155.56
2022-09-01T04:30:35.615Z,100164.98
2022-09-01T04:31:42.669Z,100163.77
2022-09-01T04:32:47.654Z,100158.92
2022-09-01T04:33:56.104Z,100157.70
2022-09-01T04:36:21.265Z,100155.19
2022-09-01T04:37:25.844Z,100154.72
2022-09-01T04:38:32.201Z,100156.86
2022-09-01T04:39:36.252Z,100155.04
2022-09-01T04:40:44.088Z,100154.17
2022-09-01T04:41:50.137Z,100153.02
2022-09-01T04:42:55.021Z,100161.77
2022-09-01T04:44:02.759Z,100157.39
2022-09-01T04:45:11.518Z,100157.00
2022-09-01T04:46:18.725Z,100158.34
2022-09-01T04:47:29.469Z,100159.39
2022-09-01T04:48:34.690Z,100153.95
2022-09-01T04:49:40.432Z,100153.76
2022-09-01T04:50:45.477Z,100156.63
2022-09-01T04:51:54.819Z,100163.70
2022-09-01T04:53:04.873Z,100170.13
2022-09-01T04:54:14.463Z,100164.52
2022-09-01T04:55:21.822Z,100160.14
2022-09-01T04:56:27.470Z,100173.82
2022-09-01T04:57:36.601Z,100171.91
2022-09-01T04:58:40.545Z,100173.94
2022-09-01T04:59:46.713Z,100172.05
2022-09-01T05:00:53.712Z,100171.02
2022-09-01T05:01:59.504Z,100162.66
2022-09-01T05:03:05.267Z,100181.06
2022-09-01T05:04:32.705Z,100180.45
2022-09-01T05:05:43.414Z,100185.97
2022-09-01T05:06:50.523Z,100187.40
2022-09-01T05:07:55.375Z,100187.01
2022-09-01T05:09:06.290Z,100176.83
2022-09-01T05:10:20.376Z,100178.17
2022-09-01T05:11:26.047Z,100181.95
2022-09-01T05:12:31.741Z,100182.94
2022-09-01T05:13:36.253Z,100187.20
2022-09-01T05:14:42.108Z,100179.36
2022-09-01T05:15:48.417Z,100185.80
2022-09-01T05:17:00.215Z,100181.17
2022-09-01T05:18:08.440Z,100175.56
2022-09-01T05:19:18.503Z,100176.95
2022-09-01T05:20:23.998Z,100173.14
2022-09-01T05:21:30.558Z,100174.77
2022-09-01T05:22:37.542Z,100176.98
2022-09-01T05:23:45.331Z,100168.73
2022-09-01T05:24:55.387Z,100188.33
2022-09-01T05:25:59.047Z,100183.28
2022-09-01T05:27:06.749Z,100176.73
2022-09-01T05:28:14.051Z,100180.63
2022-09-01T05:29:22.198Z,100172.86
2022-09-01T05:30:27.630Z,100181.63
2022-09-01T05:31:35.521Z,100178.44
2022-09-01T05:32:41.736Z,100165.91
2022-09-01T05:33:48.997Z,100182.61
2022-09-01T05:34:52.456Z,100177.88
2022-09-01T05:36:01.835Z,100180.63
2022-09-01T05:37:10.036Z,100179.79
2022-09-01T05:38:15.149Z,100176.05
2022-09-01T05:39:19.001Z,100187.03
2022-09-01T05:40:24.674Z,100190.56
2022-09-01T05:41:29.143Z,100185.01
2022-09-01T05:42:35.267Z,100186.70
2022-09-01T05:43:41.972Z,100188.20
2022-09-01T05:44:45.253Z,100188.39
2022-09-01T05:46:06.012Z,100189.57
2022-09-01T05:47:01.417Z,100193.06
2022-09-01T05:48:08.996Z,100194.08
2022-09-01T05:49:15.517Z,100191.52
2022-09-01T05:50:19.080Z,100186.51
2022-09-01T05:51:46.079Z,100190.34
2022-09-01T05:52:36.119Z,100191.34
2022-09-01T05:53:40.079Z,100186.16
2022-09-01T05:54:48.031Z,100192.69
2022-09-01T05:55:59.030Z,100191.09
2022-09-01T05:57:30.313Z,100195.25
2022-09-01T05:58:15.613Z,100188.52
2022-09-01T05:59:24.382Z,100191.53
2022-09-01T06:00:27.159Z,100195.25
2022-09-01T06:01:33.398Z,100196.58
2022-09-01T06:02:39.641Z,100186.73
2022-09-01T06:03:44.180Z,100192.44
2022-09-01T06:04:50.643Z,100187.70
2022-09-01T06:06:00.885Z,100192.55
2022-09-01T06:07:08.440Z,100193.27
2022-09-01T06:08:17.305Z,100192.37
2022-09-01T06:09:23.031Z,100186.85
2022-09-01T06:10:29.034Z,100190.41
2022-09-01T06:36:45.010Z,100181.77
2022-09-01T06:37:49.594Z,100184.52
2022-09-01T06:38:55.477Z,100185.80
2022-09-01T06:39:59.460Z,100187.30
2022-09-01T06:41:11.286Z,100187.63
2022-09-01T06:42:17.710Z,100187.16
2022-09-01T06:43:24.390Z,100193.47
2022-09-01T06:44:28.002Z,100198.50
2022-09-01T06:45:42.557Z,100196.95
2022-09-01T06:46:45.591Z,100201.39
2022-09-01T06:47:59.998Z,100204.93
2022-09-01T06:48:58.662Z,100207.37
2022-09-01T06:50:03.715Z,100209.99
2022-09-01T06:51:19.529Z,100211.77
2022-09-01T06:52:20.063Z,100216.56
2022-09-01T06:53:34.412Z,100224.03
2022-09-01T06:54:34.862Z,100223.62
2022-09-01T06:55:45.410Z,100231.69
2022-09-01T06:56:51.713Z,100236.28
2022-09-01T06:58:04.834Z,100240.06
2022-09-01T06:59:06.703Z,100245.02
2022-09-01T07:00:21.620Z,100253.63
2022-09-01T07:01:26.884Z,100253.72
2022-09-01T07:02:30.323Z,100247.30
2022-09-01T07:03:51.531Z,100257.41
2022-09-01T07:05:59.728Z,100260.13
2022-09-01T07:08:31.452Z,100255.80
2022-09-01T07:13:10.566Z,100269.23
2022-09-01T07:14:18.079Z,100267.60
2022-09-01T07:16:40.517Z,100278.84
2022-09-01T07:17:43.624Z,100278.92
2022-09-01T07:18:58.315Z,100284.33
2022-09-01T07:19:56.039Z,100282.57
2022-09-01T07:21:35.726Z,100290.34
2022-09-01T07:22:35.230Z,100297.41
2022-09-01T07:23:28.036Z,100288.45
2022-09-01T07:24:32.109Z,100296.38
2022-09-01T07:26:02.379Z,100288.88
2022-09-01T07:26:53.957Z,100280.50
2022-09-01T07:28:00.560Z,100283.84
2022-09-01T07:29:07.142Z,100288.86
2022-09-01T07:30:13.105Z,100285.27
2022-09-01T07:32:48.514Z,100284.40
2022-09-01T07:33:42.274Z,100281.73
2022-09-01T07:34:46.558Z,100286.55
2022-09-01T07:38:47.838Z,100299.66
2022-09-01T07:42:31.249Z,100262.78
2022-09-01T07:44:08.723Z,100269.88
2022-09-01T07:45:26.685Z,100283.97
2022-09-01T07:46:44.409Z,100286.09
2022-09-01T07:47:53.591Z,100284.19
2022-09-01T07:50:12.427Z,100282.29
2022-09-01T07:52:05.615Z,100289.66
2022-09-01T07:53:14.355Z,100290.95
2022-09-01T07:54:17.904Z,100293.05
2022-09-01T07:55:22.826Z,100288.56
2022-09-01T07:56:27.377Z,100283.42
2022-09-01T07:57:31.628Z,100283.42
2022-09-01T07:58:36.860Z,100285.18
2022-09-01T07:59:42.804Z,100280.03
2022-09-01T08:00:52.848Z,100280.21
2022-09-01T08:01:58.268Z,100279.39
2022-09-01T08:03:03.824Z,100272.40
2022-09-01T08:04:07.896Z,100272.77
2022-09-01T08:05:15.417Z,100270.13
2022-09-01T08:06:23.696Z,100261.78
2022-09-01T08:07:30.562Z,100264.70
2022-09-01T08:08:37.575Z,100262.03
2022-09-01T08:09:45.859Z,100259.12
2022-09-01T08:10:51.892Z,100259.12
2022-09-01T08:12:02.331Z,100262.70
2022-09-01T08:13:04.443Z,100260.14
2022-09-01T08:14:12.404Z,100261.64
2022-09-01T08:16:24.397Z,100251.05
2022-09-01T08:17:51.125Z,100258.33
2022-09-01T08:18:52.298Z,100249.91
2022-09-01T08:19:45.111Z,100246.70
2022-09-01T08:20:52.163Z,100246.70
2022-09-01T08:22:10.251Z,100243.73
2022-09-01T08:23:28.004Z,100240.48
2022-09-01T08:24:32.343Z,100239.59
2022-09-01T08:25:39.773Z,100237.76
2022-09-01T08:26:47.327Z,100241.10
2022-09-01T08:27:59.857Z,100240.33
2022-09-01T08:28:58.620Z,100245.05
2022-09-01T08:30:08.010Z,100241.22
2022-09-01T08:31:14.727Z,100243.16
2022-09-01T08:32:21.110Z,100235.73
2022-09-01T08:33:26.807Z,100233.16
2022-09-01T08:34:33.264Z,100235.10
2022-09-01T08:35:39.667Z,100241.82
2022-09-01T08:36:43.523Z,100240.31
2022-09-01T08:37:48.347Z,100241.39
2022-09-01T08:38:56.403Z,100242.58
2022-09-01T08:40:01.930Z,100249.12
2022-09-01T08:41:21.107Z,100242.00
2022-09-01T08:42:35.963Z,100246.52
2022-09-01T08:45:06.784Z,100236.70
2022-09-01T08:47:49.233Z,100236.35
2022-09-01T08:49:50.296Z,100236.74
2022-09-01T08:51:22.421Z,100242.44
2022-09-01T08:52:37.377Z,100237.05
2022-09-01T08:55:31.451Z,100238.75
2022-09-01T08:56:36.931Z,100235.73
2022-09-01T08:57:46.302Z,100228.97
2022-09-01T08:59:05.477Z,100237.00
2022-09-01T09:00:22.014Z,100231.30
2022-09-01T09:01:33.982Z,100239.32
2022-09-01T09:02:42.243Z,100239.32
2022-09-01T09:05:26.713Z,100236.58
2022-09-01T09:06:51.010Z,100243.87
2022-09-01T09:08:08.294Z,100240.63
2022-09-01T09:09:09.925Z,100237.33
2022-09-01T09:10:20.893Z,100238.59
2022-09-01T09:11:32.839Z,100242.62
2022-09-01T09:13:13.339Z,100241.98
2022-09-01T09:14:28.921Z,100244.09
2022-09-01T09:15:38.063Z,100242.83
2022-09-01T09:16:44.549Z,100251.03
2022-09-01T09:17:59.985Z,100243.70
2022-09-01T09:19:10.748Z,100247.02
2022-09-01T09:20:15.788Z,100247.02
2022-09-01T09:21:31.267Z,100239.29
2022-09-01T09:22:38.587Z,100247.66
2022-09-01T09:25:00.720Z,100246.23
2022-09-01T09:26:04.533Z,100259.91
2022-09-01T09:27:09.854Z,100253.38
2022-09-01T09:28:13.951Z,100246.81
2022-09-01T09:29:17.739Z,100240.73
2022-09-01T09:30:26.539Z,100243.02
2022-09-01T09:31:39.292Z,100247.83
2022-09-01T09:33:30.897Z,100241.28
2022-09-01T09:34:09.118Z,100240.61
2022-09-01T09:35:25.954Z,100231.38
2022-09-01T09:36:37.236Z,100240.77
2022-09-01T09:37:41.076Z,100243.59
2022-09-01T09:38:45.307Z,100235.92
2022-09-01T09:41:27.598Z,100236.39
2022-09-01T09:42:34.697Z,100236.52
2022-09-01T09:43:47.531Z,100235.25
2022-09-01T09:44:55.462Z,100237.55
2022-09-01T09:46:35.542Z,100238.26
2022-09-01T09:47:49.537Z,100234.05
2022-09-01T09:50:44.026Z,100217.70
2022-09-01T09:51:51.952Z,100217.70
2022-09-01T09:53:11.915Z,100231.20
2022-09-01T09:54:31.373Z,100230.98
2022-09-01T09:55:35.180Z,100240.97
2022-09-01T09:56:41.095Z,100219.50
2022-09-01T09:57:45.262Z,100232.55
2022-09-01T09:58:51.423Z,100240.14
2022-09-01T10:00:04.249Z,100232.97
2022-09-01T10:01:27.529Z,100234.26
2022-09-01T10:02:36.444Z,100243.70
2022-09-01T10:03:50.157Z,100235.11
2022-09-01T10:04:55.939Z,100240.57
2022-09-01T10:06:00.791Z,100233.64
2022-09-01T10:07:27.101Z,100235.94
2022-09-01T10:08:35.633Z,100235.73
2022-09-01T10:09:41.607Z,100235.91
2022-09-01T10:10:58.011Z,100235.12
2022-09-01T10:12:01.003Z,100224.44
2022-09-01T10:13:13.795Z,100227.80
2022-09-01T10:14:35.287Z,100228.40
2022-09-01T10:15:31.684Z,100226.38
2022-09-01T10:16:39.397Z,100227.57
2022-09-01T10:17:45.379Z,100231.69
2022-09-01T10:18:53.091Z,100232.97
2022-09-01T10:20:01.217Z,100229.65
2022-09-01T10:21:10.681Z,100232.32
2022-09-01T10:22:15.171Z,100230.64
2022-09-01T10:23:19.616Z,100227.67
2022-09-01T10:24:44.724Z,100222.09
2022-09-01T10:25:50.066Z,100237.76
2022-09-01T10:26:58.506Z,100237.41
2022-09-01T10:28:24.569Z,100236.30
2022-09-01T10:29:47.440Z,100236.08
2022-09-01T10:30:48.894Z,100231.08
2022-09-01T10:32:14.779Z,100231.23
2022-09-01T10:33:18.986Z,100237.97
2022-09-01T10:34:19.324Z,100232.81
2022-09-01T10:35:33.472Z,100228.91
2022-09-01T10:36:37.797Z,100236.38
2022-09-01T10:37:43.514Z,100227.67
2022-09-01T10:38:53.798Z,100231.07
2022-09-01T10:40:30.288Z,100227.73
2022-09-01T10:42:00.593Z,100232.53
2022-09-01T10:43:23.715Z,100222.27
2022-09-01T10:44:36.076Z,100233.16
2022-09-01T10:45:43.650Z,100223.95
2022-09-01T10:46:51.458Z,100218.70
2022-09-01T10:47:57.414Z,100224.21
2022-09-01T10:49:04.425Z,100215.70
2022-09-01T10:50:29.505Z,100219.36
2022-09-01T10:51:50.630Z,100212.39
2022-09-01T10:52:53.576Z,100215.95
2022-09-01T10:54:02.089Z,100215.11
2022-09-01T10:55:06.818Z,100215.02
2022-09-01T10:56:36.582Z,100222.09
2022-09-01T10:59:29.938Z,100213.33
2022-09-01T11:00:37.413Z,100214.80
2022-09-01T11:01:51.153Z,100226.13
2022-09-01T11:03:30.582Z,100213.87
2022-09-01T11:04:37.890Z,100224.42
2022-09-01T11:06:18.704Z,100216.92
2022-09-01T11:07:58.183Z,100219.22
2022-09-01T11:08:53.702Z,100220.45
2022-09-01T11:11:41.207Z,100207.00
2022-09-01T11:13:02.608Z,100212.05
2022-09-01T11:14:12.029Z,100210.66
2022-09-01T11:15:20.650Z,100216.65
2022-09-01T11:16:49.230Z,100213.61
2022-09-01T11:17:43.013Z,100215.16
2022-09-01T11:18:48.723Z,100209.79
2022-09-01T11:21:32.592Z,100196.01
2022-09-01T11:22:43.340Z,100201.96
2022-09-01T11:23:47.922Z,100202.02
2022-09-01T11:25:00.292Z,100201.32
2022-09-01T11:26:20.222Z,100202.46
2022-09-01T11:27:11.999Z,100200.48
2022-09-01T11:28:33.056Z,100194.73
2022-09-01T11:30:02.692Z,100193.90
2022-09-01T11:31:13.034Z,100202.20
2022-09-01T11:32:16.260Z,100196.67
2022-09-01T11:33:34.006Z,100199.84
2022-09-01T11:34:44.899Z,100194.59
2022-09-01T11:35:56.017Z,100198.38
2022-09-01T11:37:01.979Z,100195.34
2022-09-01T11:38:08.338Z,100200.72
2022-09-01T11:39:24.961Z,100203.75
2022-09-01T11:40:33.037Z,100200.02
2022-09-01T11:41:44.571Z,100199.05
2022-09-01T11:42:52.876Z,100198.38
2022-09-01T11:43:59.860Z,100199.48
2022-09-01T11:45:11.303Z,100195.56
2022-09-01T11:46:29.764Z,100191.81
2022-09-01T11:47:40.013Z,100200.22
2022-09-01T11:48:51.830Z,100195.18
2022-09-01T11:49:59.843Z,100195.63
2022-09-01T11:51:05.718Z,100196.11
2022-09-01T11:52:12.914Z,100191.03
2022-09-01T11:53:23.857Z,100192.45
2022-09-01T11:54:29.353Z,100189.73
2022-09-01T11:55:37.074Z,100199.87
2022-09-01T11:56:41.727Z,100193.13
2022-09-01T11:57:45.231Z,100194.07
2022-09-01T11:58:48.944Z,100188.53
2022-09-01T11:59:55.520Z,100186.44
2022-09-01T12:01:14.269Z,100197.39
2022-09-01T12:02:25.740Z,100185.87
2022-09-01T12:03:32.063Z,100200.88
2022-09-01T12:04:39.394Z,100195.66
2022-09-01T12:05:48.521Z,100192.27
2022-09-01T12:06:56.688Z,100181.22
2022-09-01T12:08:06.322Z,100192.55
2022-09-01T12:09:10.245Z,100185.41
2022-09-01T12:10:23.604Z,100185.76
2022-09-01T12:11:32.936Z,100187.60
2022-09-01T12:12:40.316Z,100187.70
2022-09-01T12:13:50.091Z,100191.12
2022-09-01T12:16:22.761Z,100189.63
2022-09-01T12:17:26.082Z,100190.77
2022-09-01T12:18:36.321Z,100184.19
2022-09-01T12:19:40.383Z,100187.66
2022-09-01T12:22:05.564Z,100191.46
2022-09-01T12:24:41.834Z,100185.84
2022-09-01T12:25:46.625Z,100188.81
2022-09-01T12:26:55.363Z,100179.67
2022-09-01T12:28:05.334Z,100180.45
2022-09-01T12:29:10.745Z,100184.80
2022-09-01T12:30:16.449Z,100173.40
2022-09-01T12:31:23.281Z,100175.87
2022-09-01T12:32:26.911Z,100168.28
2022-09-01T12:33:33.153Z,100170.37
2022-09-01T12:34:44.354Z,100174.88
2022-09-01T12:35:48.174Z,100172.69
2022-09-01T12:37:28.914Z,100176.14
2022-09-01T12:38:33.720Z,100182.34
2022-09-01T12:39:44.786Z,100171.47
2022-09-01T12:40:58.071Z,100180.48
2022-09-01T12:42:10.870Z,100177.17
2022-09-01T12:43:30.015Z,100184.14
2022-09-01T12:45:48.618Z,100170.79
2022-09-01T12:46:53.968Z,100167.23
2022-09-01T12:47:57.746Z,100169.91
2022-09-01T12:49:23.217Z,100168.09
2022-09-01T12:50:31.598Z,100169.11
2022-09-01T12:51:36.149Z,100175.70
2022-09-01T12:52:52.379Z,100179.80
2022-09-01T12:54:04.482Z,100170.23
2022-09-01T12:55:46.981Z,100180.14
2022-09-01T12:56:34.809Z,100183.44
2022-09-01T12:57:46.106Z,100180.72
2022-09-01T12:58:53.583Z,100169.06
2022-09-01T13:00:09.826Z,100179.95
2022-09-01T13:01:26.719Z,100183.31
2022-09-01T13:02:38.255Z,100183.80
2022-09-01T13:03:42.202Z,100186.52
2022-09-01T13:04:45.306Z,100178.58
2022-09-01T13:05:55.196Z,100182.36
2022-09-01T13:07:05.739Z,100174.41
2022-09-01T13:09:23.752Z,100183.94
2022-09-01T13:10:39.495Z,100185.65
2022-09-01T13:12:48.792Z,100180.03
2022-09-01T13:13:54.431Z,100177.61
2022-09-01T13:14:57.957Z,100185.98
2022-09-01T13:16:05.774Z,100185.08
2022-09-01T13:17:14.024Z,100174.02
2022-09-01T13:18:19.265Z,100182.52
2022-09-01T13:19:28.672Z,100187.95
2022-09-01T13:20:31.833Z,100186.22
2022-09-01T13:21:36.979Z,100189.91
2022-09-01T13:23:59.110Z,100181.44
2022-09-01T13:25:02.924Z,100176.06
2022-09-01T13:26:10.350Z,100180.14
2022-09-01T13:27:23.101Z,100185.23
2022-09-01T13:29:29.481Z,100194.14
2022-09-01T13:30:35.912Z,100190.36
2022-09-01T13:32:16.473Z,100191.65
2022-09-01T13:34:22.602Z,100185.52
2022-09-01T13:35:04.333Z,100187.98
2022-09-01T13:37:13.591Z,100177.83
2022-09-01T13:38:20.857Z,100179.83
2022-09-01T13:39:23.691Z,100173.77
2022-09-01T13:40:28.259Z,100184.71
2022-09-01T13:41:32.687Z,100179.45
2022-09-01T13:42:38.901Z,100187.38
2022-09-01T13:43:45.576Z,100182.37
2022-09-01T13:44:55.139Z,100180.52
2022-09-01T13:45:55.470Z,100173.88
2022-09-01T13:46:59.608Z,100176.36
2022-09-01T13:48:19.544Z,100185.95
2022-09-01T13:50:23.717Z,100186.80
2022-09-01T13:51:28.214Z,100185.92
2022-09-01T13:52:32.959Z,100181.23
2022-09-01T13:53:38.869Z,100187.78
2022-09-01T13:54:44.721Z,100186.41
2022-09-01T13:55:50.183Z,100188.79
2022-09-01T13:56:55.418Z,100188.22
2022-09-01T13:58:03.125Z,100176.33
2022-09-01T13:59:15.560Z,100171.81
2022-09-01T14:00:24.937Z,100169.09
2022-09-01T14:01:29.349Z,100169.62
2022-09-01T14:02:36.020Z,100179.95
2022-09-01T14:03:39.776Z,100182.86
2022-09-01T14:04:44.679Z,100187.38
2022-09-01T14:05:49.992Z,100182.55
2022-09-01T14:06:54.636Z,100181.72
2022-09-01T14:08:02.715Z,100182.00
2022-09-01T14:09:06.414Z,100182.47
2022-09-01T14:10:11.955Z,100177.48
2022-09-01T14:11:21.760Z,100185.78
2022-09-01T14:12:27.335Z,100183.25
2022-09-01T14:13:33.233Z,100176.58
2022-09-01T14:15:45.417Z,100172.18
2022-09-01T14:16:50.092Z,100173.84
2022-09-01T14:17:57.125Z,100173.91